Pagrindinis puslapis
METAR-TAF:

METAR-TAF

Oro uostai :

Sakonakhonas, Tailandas

platuma: 17-11-42N, ilguma: 104-07-08E, Aukštis: 161 m

Dabartinis oras

Ataskaita buvo paskelbta 5 valandos ir 14 minutes, ne 15:00 UTC
Vėjas 5 kt iš Rytų/Pietryčių, svyruoja nuo Rytų/Šiaurės Rytų ir Pietų/Pietryčių
Temperatūra 28°C
Drėgmė 79%
Slėgis 1010 hPa
Matomumas 10 km arba daugiau
Mažai debesys ne aukštis 4000 ft

METAR: VTUI 201500Z 12005KT 060V150 9999 FEW040 28/24 Q1010 NOSIG

Laikas: 03:14 (20:14 UTC)

Prognozė

Ataskaita buvo paskelbta 3 valandos ir 14 minutes, ne 17:00 UTC
Prognozė galioja nuo 20 metu 18 UTC su 21 metu 18 UTC
Vėjas 4 kt iš Rytų
Matomumas 10 km arba daugiau
Mažai debesys ne aukštis 4000 ft
Laikinai
nuo 21 metu 06 UTC su 21 metu 13 UTC
Matomumas: 5000 m
Mažai debesys ne aukštis 1800 ft, Liūtiniai kamuoliniai debesys.
Su prošvaistėmis ne aukštis 3000 ft
perkūnija, lietus

TAF: VTUI 201700Z 2018/2118 10004KT 9999 FEW040 TEMPO 2106/2113 5000 TSRA FEW018CB BKN030

Orai ataskaitas ir orų prognozės (METAR, TAF).

turimą stotys yra geltonos ir raudonos taškus žemėlapyje.

Perkelti pele per norėdami pamatyti stoties vardą.

Tada spustelėkite, norėdami matyti oro stebėjimo ir prognozės.

Norėdami pakeisti žemėlapį: spustelėkite ant žalios mygtukų su juodo kryžiaus žemyn,; žalią mygtuką su brūkšneliu, jei norite nutolinti; arba žalių rodyklių gretimoms žemėlapius.


METAR-TAF: